sensor_id;sensor_type;location;lat;lon;timestamp;pressure;altitude;pressure_sealevel;temperature;humidity
20019;BME280;10170;42.502;26.526;2022-12-18T00:01:20;100210.94;;;11.74;100.00
20019;BME280;10170;42.502;26.526;2022-12-18T00:03:48;100192.31;;;11.46;100.00
20019;BME280;10170;42.502;26.526;2022-12-18T00:06:15;100208.41;;;11.66;100.00
20019;BME280;10170;42.502;26.526;2022-12-18T00:08:44;100195.22;;;11.58;100.00
20019;BME280;10170;42.502;26.526;2022-12-18T00:11:16;100216.47;;;11.79;100.00
20019;BME280;10170;42.502;26.526;2022-12-18T00:13:44;100224.47;;;11.79;100.00
20019;BME280;10170;42.502;26.526;2022-12-18T00:16:13;100225.56;;;11.57;100.00
20019;BME280;10170;42.502;26.526;2022-12-18T00:18:41;100230.19;;;11.42;100.00
20019;BME280;10170;42.502;26.526;2022-12-18T00:21:10;100239.47;;;11.52;100.00
20019;BME280;10170;42.502;26.526;2022-12-18T00:23:37;100232.00;;;11.35;100.00
20019;BME280;10170;42.502;26.526;2022-12-18T00:26:07;100248.97;;;11.27;100.00
20019;BME280;10170;42.502;26.526;2022-12-18T00:28:35;100249.75;;;11.21;100.00
20019;BME280;10170;42.502;26.526;2022-12-18T00:31:05;100255.59;;;11.38;100.00
20019;BME280;10170;42.502;26.526;2022-12-18T00:33:33;100247.97;;;11.35;100.00
20019;BME280;10170;42.502;26.526;2022-12-18T00:36:04;100252.75;;;11.46;100.00
20019;BME280;10170;42.502;26.526;2022-12-18T00:38:32;100257.88;;;11.47;100.00
20019;BME280;10170;42.502;26.526;2022-12-18T00:40:59;100261.81;;;11.58;100.00
20019;BME280;10170;42.502;26.526;2022-12-18T00:43:26;100272.03;;;11.54;100.00
20019;BME280;10170;42.502;26.526;2022-12-18T00:45:53;100279.81;;;11.49;100.00
20019;BME280;10170;42.502;26.526;2022-12-18T00:48:20;100280.19;;;11.40;100.00
20019;BME280;10170;42.502;26.526;2022-12-18T00:50:48;100277.56;;;11.19;100.00
20019;BME280;10170;42.502;26.526;2022-12-18T00:53:15;100280.63;;;11.16;100.00
20019;BME280;10170;42.502;26.526;2022-12-18T00:55:42;100277.56;;;11.19;100.00
20019;BME280;10170;42.502;26.526;2022-12-18T00:58:10;100277.75;;;11.17;100.00
20019;BME280;10170;42.502;26.526;2022-12-18T01:00:37;100264.53;;;11.03;100.00
20019;BME280;10170;42.502;26.526;2022-12-18T01:03:05;100280.38;;;11.11;100.00
20019;BME280;10170;42.502;26.526;2022-12-18T01:05:32;100291.50;;;11.21;100.00
20019;BME280;10170;42.502;26.526;2022-12-18T01:07:59;100292.53;;;11.20;100.00
20019;BME280;10170;42.502;26.526;2022-12-18T01:10:26;100297.50;;;11.02;100.00
20019;BME280;10170;42.502;26.526;2022-12-18T01:12:52;100323.59;;;11.13;100.00
20019;BME280;10170;42.502;26.526;2022-12-18T01:15:19;100335.16;;;10.99;100.00
20019;BME280;10170;42.502;26.526;2022-12-18T01:17:46;100328.16;;;10.98;100.00
20019;BME280;10170;42.502;26.526;2022-12-18T01:20:13;100328.59;;;11.01;100.00
20019;BME280;10170;42.502;26.526;2022-12-18T01:22:39;100330.00;;;10.97;100.00
20019;BME280;10170;42.502;26.526;2022-12-18T01:25:06;100316.41;;;10.86;100.00
20019;BME280;10170;42.502;26.526;2022-12-18T01:27:34;100316.75;;;11.04;100.00
20019;BME280;10170;42.502;26.526;2022-12-18T01:30:01;100312.13;;;11.12;100.00
20019;BME280;10170;42.502;26.526;2022-12-18T01:32:30;100303.97;;;11.20;100.00
20019;BME280;10170;42.502;26.526;2022-12-18T01:34:57;100295.81;;;11.22;100.00
20019;BME280;10170;42.502;26.526;2022-12-18T01:37:24;100295.09;;;11.34;100.00
20019;BME280;10170;42.502;26.526;2022-12-18T01:39:52;100280.28;;;11.25;100.00
20019;BME280;10170;42.502;26.526;2022-12-18T01:42:21;100278.19;;;11.21;100.00
20019;BME280;10170;42.502;26.526;2022-12-18T01:45:00;100271.88;;;11.22;100.00
20019;BME280;10170;42.502;26.526;2022-12-18T01:52:38;100251.88;;;11.32;100.00
20019;BME280;10170;42.502;26.526;2022-12-18T01:55:09;100260.06;;;11.37;100.00
20019;BME280;10170;42.502;26.526;2022-12-18T01:57:37;100266.44;;;11.36;100.00
20019;BME280;10170;42.502;26.526;2022-12-18T02:00:08;100265.97;;;11.33;100.00
20019;BME280;10170;42.502;26.526;2022-12-18T02:02:35;100272.13;;;11.33;100.00
20019;BME280;10170;42.502;26.526;2022-12-18T02:05:03;100266.44;;;11.36;100.00
20019;BME280;10170;42.502;26.526;2022-12-18T02:13:20;100283.88;;;11.11;100.00
20019;BME280;10170;42.502;26.526;2022-12-18T02:18:46;100281.44;;;11.16;100.00
20019;BME280;10170;42.502;26.526;2022-12-18T02:24:39;100275.09;;;10.90;100.00
20019;BME280;10170;42.502;26.526;2022-12-18T02:27:09;100277.75;;;10.90;100.00
20019;BME280;10170;42.502;26.526;2022-12-18T02:29:39;100278.84;;;10.95;100.00
20019;BME280;10170;42.502;26.526;2022-12-18T02:32:11;100280.91;;;11.00;100.00
20019;BME280;10170;42.502;26.526;2022-12-18T02:34:40;100273.03;;;10.92;100.00
20019;BME280;10170;42.502;26.526;2022-12-18T02:37:11;100253.63;;;10.91;100.00
20019;BME280;10170;42.502;26.526;2022-12-18T02:39:42;100279.19;;;10.92;100.00
20019;BME280;10170;42.502;26.526;2022-12-18T02:42:10;100283.66;;;10.85;100.00
20019;BME280;10170;42.502;26.526;2022-12-18T02:44:46;100288.41;;;10.90;100.00
20019;BME280;10170;42.502;26.526;2022-12-18T02:47:15;100287.38;;;10.91;100.00
20019;BME280;10170;42.502;26.526;2022-12-18T02:55:28;100281.31;;;10.76;100.00
20019;BME280;10170;42.502;26.526;2022-12-18T02:58:20;100283.22;;;10.82;100.00
20019;BME280;10170;42.502;26.526;2022-12-18T03:06:19;100282.56;;;10.80;100.00
20019;BME280;10170;42.502;26.526;2022-12-18T03:08:51;100287.16;;;10.65;100.00
20019;BME280;10170;42.502;26.526;2022-12-18T03:11:20;100294.81;;;10.53;100.00
20019;BME280;10170;42.502;26.526;2022-12-18T03:14:07;100290.06;;;10.48;100.00
20019;BME280;10170;42.502;26.526;2022-12-18T03:16:35;100287.84;;;10.52;100.00
20019;BME280;10170;42.502;26.526;2022-12-18T03:19:07;100305.75;;;10.43;100.00
20019;BME280;10170;42.502;26.526;2022-12-18T03:21:43;100285.94;;;10.46;100.00
20019;BME280;10170;42.502;26.526;2022-12-18T03:24:11;100302.78;;;10.53;100.00
20019;BME280;10170;42.502;26.526;2022-12-18T03:26:42;100293.66;;;10.62;100.00
20019;BME280;10170;42.502;26.526;2022-12-18T03:29:14;100306.66;;;10.72;100.00
20019;BME280;10170;42.502;26.526;2022-12-18T03:31:47;100308.97;;;10.81;100.00
20019;BME280;10170;42.502;26.526;2022-12-18T03:34:32;100311.09;;;10.86;100.00
20019;BME280;10170;42.502;26.526;2022-12-18T03:37:01;100313.34;;;10.89;100.00
20019;BME280;10170;42.502;26.526;2022-12-18T03:39:28;100320.63;;;11.01;100.00
20019;BME280;10170;42.502;26.526;2022-12-18T03:50:49;100334.38;;;10.84;100.00
20019;BME280;10170;42.502;26.526;2022-12-18T03:55:52;100332.47;;;10.78;100.00
20019;BME280;10170;42.502;26.526;2022-12-18T03:58:23;100339.66;;;10.77;100.00
20019;BME280;10170;42.502;26.526;2022-12-18T04:00:53;100348.81;;;10.96;100.00
20019;BME280;10170;42.502;26.526;2022-12-18T04:03:23;100365.22;;;10.99;100.00
20019;BME280;10170;42.502;26.526;2022-12-18T04:05:54;100358.84;;;11.15;100.00
20019;BME280;10170;42.502;26.526;2022-12-18T04:08:22;100367.38;;;11.10;100.00
20019;BME280;10170;42.502;26.526;2022-12-18T04:10:50;100373.25;;;11.27;100.00
20019;BME280;10170;42.502;26.526;2022-12-18T04:13:24;100377.38;;;11.08;100.00
20019;BME280;10170;42.502;26.526;2022-12-18T04:15:51;100384.31;;;11.24;100.00
20019;BME280;10170;42.502;26.526;2022-12-18T04:18:18;100383.31;;;11.31;100.00
20019;BME280;10170;42.502;26.526;2022-12-18T04:20:45;100391.38;;;11.17;100.00
20019;BME280;10170;42.502;26.526;2022-12-18T04:23:11;100394.81;;;10.90;100.00
20019;BME280;10170;42.502;26.526;2022-12-18T04:25:38;100395.44;;;10.92;100.00
20019;BME280;10170;42.502;26.526;2022-12-18T04:28:05;100401.59;;;10.92;100.00
20019;BME280;10170;42.502;26.526;2022-12-18T04:30:32;100390.06;;;10.85;100.00
20019;BME280;10170;42.502;26.526;2022-12-18T04:32:59;100402.22;;;10.94;100.00
20019;BME280;10170;42.502;26.526;2022-12-18T04:35:26;100390.75;;;10.94;100.00
20019;BME280;10170;42.502;26.526;2022-12-18T04:37:52;100407.75;;;10.93;100.00
20019;BME280;10170;42.502;26.526;2022-12-18T04:40:19;100410.72;;;10.83;100.00
20019;BME280;10170;42.502;26.526;2022-12-18T04:42:46;100414.00;;;10.85;100.00
20019;BME280;10170;42.502;26.526;2022-12-18T04:45:12;100420.94;;;10.65;100.00
20019;BME280;10170;42.502;26.526;2022-12-18T04:47:39;100427.66;;;10.61;100.00
20019;BME280;10170;42.502;26.526;2022-12-18T04:50:06;100427.47;;;10.63;100.00
20019;BME280;10170;42.502;26.526;2022-12-18T04:52:33;100418.31;;;10.50;100.00
20019;BME280;10170;42.502;26.526;2022-12-18T04:55:00;100428.28;;;10.63;100.00
20019;BME280;10170;42.502;26.526;2022-12-18T04:57:26;100439.25;;;10.75;100.00
20019;BME280;10170;42.502;26.526;2022-12-18T04:59:53;100448.34;;;10.80;100.00
20019;BME280;10170;42.502;26.526;2022-12-18T05:02:20;100439.78;;;10.85;100.00
20019;BME280;10170;42.502;26.526;2022-12-18T05:04:47;100438.66;;;10.94;100.00
20019;BME280;10170;42.502;26.526;2022-12-18T05:07:14;100430.31;;;10.97;100.00
20019;BME280;10170;42.502;26.526;2022-12-18T05:09:40;100459.38;;;10.98;100.00
20019;BME280;10170;42.502;26.526;2022-12-18T05:12:07;100462.88;;;10.99;100.00
20019;BME280;10170;42.502;26.526;2022-12-18T05:14:34;100458.44;;;11.06;100.00
20019;BME280;10170;42.502;26.526;2022-12-18T05:17:00;100453.03;;;10.99;100.00
20019;BME280;10170;42.502;26.526;2022-12-18T05:19:27;100469.16;;;11.12;100.00
20019;BME280;10170;42.502;26.526;2022-12-18T05:21:54;100476.00;;;11.21;100.00
20019;BME280;10170;42.502;26.526;2022-12-18T05:24:21;100485.97;;;11.13;100.00
20019;BME280;10170;42.502;26.526;2022-12-18T05:26:47;100487.63;;;10.99;100.00
20019;BME280;10170;42.502;26.526;2022-12-18T05:29:14;100492.16;;;10.99;100.00
20019;BME280;10170;42.502;26.526;2022-12-18T05:31:41;100492.03;;;11.07;100.00
20019;BME280;10170;42.502;26.526;2022-12-18T05:34:08;100492.88;;;10.93;100.00
20019;BME280;10170;42.502;26.526;2022-12-18T05:36:36;100495.38;;;10.80;100.00
20019;BME280;10170;42.502;26.526;2022-12-18T05:39:03;100500.94;;;10.99;100.00
20019;BME280;10170;42.502;26.526;2022-12-18T05:41:31;100501.56;;;11.01;100.00
20019;BME280;10170;42.502;26.526;2022-12-18T05:43:58;100507.72;;;11.02;100.00
20019;BME280;10170;42.502;26.526;2022-12-18T05:46:25;100527.81;;;11.04;100.00
20019;BME280;10170;42.502;26.526;2022-12-18T05:48:52;100534.78;;;11.05;100.00
20019;BME280;10170;42.502;26.526;2022-12-18T05:51:21;100541.03;;;10.98;100.00
20019;BME280;10170;42.502;26.526;2022-12-18T05:53:47;100527.53;;;11.14;100.00
20019;BME280;10170;42.502;26.526;2022-12-18T05:56:17;100534.56;;;10.86;100.00
20019;BME280;10170;42.502;26.526;2022-12-18T05:58:44;100539.75;;;10.94;100.00
20019;BME280;10170;42.502;26.526;2022-12-18T06:01:15;100541.09;;;11.19;100.00
20019;BME280;10170;42.502;26.526;2022-12-18T06:03:42;100546.13;;;11.28;100.00
20019;BME280;10170;42.502;26.526;2022-12-18T06:06:28;100545.38;;;11.34;100.00
20019;BME280;10170;42.502;26.526;2022-12-18T06:08:55;100562.81;;;11.22;100.00
20019;BME280;10170;42.502;26.526;2022-12-18T06:11:24;100561.22;;;11.42;100.00
20019;BME280;10170;42.502;26.526;2022-12-18T06:13:55;100573.84;;;11.55;100.00
20019;BME280;10170;42.502;26.526;2022-12-18T06:16:25;100578.78;;;11.58;100.00
20019;BME280;10170;42.502;26.526;2022-12-18T06:18:52;100576.88;;;11.67;100.00
20019;BME280;10170;42.502;26.526;2022-12-18T06:21:19;100585.78;;;11.59;100.00
20019;BME280;10170;42.502;26.526;2022-12-18T06:23:46;100592.19;;;11.43;100.00
20019;BME280;10170;42.502;26.526;2022-12-18T06:26:13;100584.28;;;11.35;100.00
20019;BME280;10170;42.502;26.526;2022-12-18T06:28:41;100595.09;;;11.48;100.00
20019;BME280;10170;42.502;26.526;2022-12-18T06:31:08;100596.13;;;11.33;100.00
20019;BME280;10170;42.502;26.526;2022-12-18T06:33:35;100613.19;;;11.38;100.00
20019;BME280;10170;42.502;26.526;2022-12-18T06:36:07;100613.78;;;11.34;100.00
20019;BME280;10170;42.502;26.526;2022-12-18T06:38:36;100609.19;;;11.28;100.00
20019;BME280;10170;42.502;26.526;2022-12-18T06:41:08;100616.19;;;11.29;100.00
20019;BME280;10170;42.502;26.526;2022-12-18T06:43:35;100623.78;;;11.32;100.00
20019;BME280;10170;42.502;26.526;2022-12-18T06:46:03;100632.59;;;11.32;100.00
20019;BME280;10170;42.502;26.526;2022-12-18T06:48:31;100638.22;;;11.23;100.00
20019;BME280;10170;42.502;26.526;2022-12-18T06:50:58;100645.53;;;11.35;100.00
20019;BME280;10170;42.502;26.526;2022-12-18T06:53:25;100652.59;;;11.43;100.00
20019;BME280;10170;42.502;26.526;2022-12-18T06:55:52;100642.50;;;11.38;100.00
20019;BME280;10170;42.502;26.526;2022-12-18T06:58:18;100641.13;;;11.28;100.00
20019;BME280;10170;42.502;26.526;2022-12-18T07:00:45;100667.94;;;11.41;100.00
20019;BME280;10170;42.502;26.526;2022-12-18T07:03:12;100660.50;;;11.36;100.00
20019;BME280;10170;42.502;26.526;2022-12-18T07:05:40;100676.94;;;11.40;100.00
20019;BME280;10170;42.502;26.526;2022-12-18T07:08:07;100692.09;;;11.10;100.00
20019;BME280;10170;42.502;26.526;2022-12-18T07:10:41;100692.75;;;11.12;100.00
20019;BME280;10170;42.502;26.526;2022-12-18T07:13:15;100705.31;;;11.04;100.00
20019;BME280;10170;42.502;26.526;2022-12-18T07:15:42;100711.44;;;11.04;100.00
20019;BME280;10170;42.502;26.526;2022-12-18T07:18:10;100707.13;;;10.89;100.00
20019;BME280;10170;42.502;26.526;2022-12-18T07:20:37;100731.66;;;10.99;100.00
20019;BME280;10170;42.502;26.526;2022-12-18T07:23:04;100727.56;;;10.88;100.00
20019;BME280;10170;42.502;26.526;2022-12-18T07:25:35;100746.00;;;10.75;100.00
20019;BME280;10170;42.502;26.526;2022-12-18T07:28:02;100751.81;;;10.79;100.00
20019;BME280;10170;42.502;26.526;2022-12-18T07:30:29;100750.88;;;10.72;100.00
20019;BME280;10170;42.502;26.526;2022-12-18T07:32:55;100752.88;;;10.70;100.00
20019;BME280;10170;42.502;26.526;2022-12-18T07:35:22;100760.22;;;10.68;100.00
20019;BME280;10170;42.502;26.526;2022-12-18T07:37:51;100763.69;;;10.68;100.00
20019;BME280;10170;42.502;26.526;2022-12-18T07:40:18;100751.66;;;10.57;100.00
20019;BME280;10170;42.502;26.526;2022-12-18T07:42:44;100762.41;;;10.64;100.00
20019;BME280;10170;42.502;26.526;2022-12-18T07:45:11;100781.19;;;10.63;100.00
20019;BME280;10170;42.502;26.526;2022-12-18T07:47:38;100779.59;;;10.53;100.00
20019;BME280;10170;42.502;26.526;2022-12-18T07:50:05;100780.78;;;10.74;100.00
20019;BME280;10170;42.502;26.526;2022-12-18T07:52:32;100785.63;;;10.70;100.00
20019;BME280;10170;42.502;26.526;2022-12-18T07:54:59;100791.25;;;10.75;100.00
20019;BME280;10170;42.502;26.526;2022-12-18T07:57:26;100800.28;;;10.66;100.00
20019;BME280;10170;42.502;26.526;2022-12-18T08:00:13;100815.63;;;10.56;100.00
20019;BME280;10170;42.502;26.526;2022-12-18T08:02:40;100813.16;;;10.54;100.00
20019;BME280;10170;42.502;26.526;2022-12-18T08:05:08;100822.09;;;10.61;100.00
20019;BME280;10170;42.502;26.526;2022-12-18T08:07:34;100813.03;;;10.71;100.00
20019;BME280;10170;42.502;26.526;2022-12-18T08:10:01;100819.09;;;10.65;100.00
20019;BME280;10170;42.502;26.526;2022-12-18T08:12:29;100831.38;;;10.66;100.00
20019;BME280;10170;42.502;26.526;2022-12-18T08:14:56;100821.31;;;10.76;100.00
20019;BME280;10170;42.502;26.526;2022-12-18T08:17:22;100820.50;;;10.75;100.00
20019;BME280;10170;42.502;26.526;2022-12-18T08:19:49;100821.97;;;10.78;100.00
20019;BME280;10170;42.502;26.526;2022-12-18T08:22:16;100825.03;;;10.67;100.00
20019;BME280;10170;42.502;26.526;2022-12-18T08:24:42;100834.13;;;10.72;100.00
20019;BME280;10170;42.502;26.526;2022-12-18T08:27:09;100832.28;;;10.81;100.00
20019;BME280;10170;42.502;26.526;2022-12-18T08:29:55;100854.28;;;10.67;100.00
20019;BME280;10170;42.502;26.526;2022-12-18T08:32:22;100839.31;;;10.74;100.00
20019;BME280;10170;42.502;26.526;2022-12-18T08:34:49;100841.06;;;10.81;100.00
20019;BME280;10170;42.502;26.526;2022-12-18T08:37:15;100849.94;;;10.74;100.00
20019;BME280;10170;42.502;26.526;2022-12-18T08:39:42;100860.03;;;10.78;100.00
20019;BME280;10170;42.502;26.526;2022-12-18T08:42:09;100854.13;;;10.68;100.00
20019;BME280;10170;42.502;26.526;2022-12-18T08:44:54;100860.59;;;10.74;100.00
20019;BME280;10170;42.502;26.526;2022-12-18T08:47:21;100856.25;;;10.73;100.00
20019;BME280;10170;42.502;26.526;2022-12-18T08:49:48;100841.00;;;10.67;100.00
20019;BME280;10170;42.502;26.526;2022-12-18T08:52:14;100846.03;;;10.61;100.00
20019;BME280;10170;42.502;26.526;2022-12-18T08:54:41;100859.56;;;10.75;100.00
20019;BME280;10170;42.502;26.526;2022-12-18T08:57:08;100857.97;;;10.66;100.00
20019;BME280;10170;42.502;26.526;2022-12-18T08:59:34;100855.88;;;10.53;100.00
20019;BME280;10170;42.502;26.526;2022-12-18T09:02:01;100856.00;;;10.59;100.00
20019;BME280;10170;42.502;26.526;2022-12-18T09:04:28;100866.78;;;10.66;100.00
20019;BME280;10170;42.502;26.526;2022-12-18T09:06:55;100859.63;;;10.67;100.00
20019;BME280;10170;42.502;26.526;2022-12-18T09:09:22;100852.75;;;10.49;100.00
20019;BME280;10170;42.502;26.526;2022-12-18T09:11:48;100867.84;;;10.57;100.00
20019;BME280;10170;42.502;26.526;2022-12-18T09:14:15;100848.38;;;10.56;100.00
20019;BME280;10170;42.502;26.526;2022-12-18T09:16:42;100861.09;;;10.46;100.00
20019;BME280;10170;42.502;26.526;2022-12-18T09:19:12;100844.75;;;10.57;100.00
20019;BME280;10170;42.502;26.526;2022-12-18T09:21:39;100859.72;;;10.50;100.00
20019;BME280;10170;42.502;26.526;2022-12-18T09:24:13;100868.13;;;10.39;100.00
20019;BME280;10170;42.502;26.526;2022-12-18T09:26:40;100856.84;;;10.29;100.00
20019;BME280;10170;42.502;26.526;2022-12-18T09:29:13;100868.91;;;10.40;100.00
20019;BME280;10170;42.502;26.526;2022-12-18T09:31:40;100865.94;;;10.43;100.00
20019;BME280;10170;42.502;26.526;2022-12-18T09:34:07;100865.19;;;10.26;100.00
20019;BME280;10170;42.502;26.526;2022-12-18T09:36:34;100863.69;;;10.24;100.00
20019;BME280;10170;42.502;26.526;2022-12-18T09:39:00;100871.16;;;10.28;100.00
20019;BME280;10170;42.502;26.526;2022-12-18T09:46:42;100879.16;;;10.20;100.00
20019;BME280;10170;42.502;26.526;2022-12-18T09:49:14;100865.56;;;10.15;100.00
20019;BME280;10170;42.502;26.526;2022-12-18T09:51:47;100874.19;;;10.17;100.00
20019;BME280;10170;42.502;26.526;2022-12-18T09:54:21;100872.41;;;10.02;100.00
20019;BME280;10170;42.502;26.526;2022-12-18T09:56:49;100863.00;;;9.91;100.00
20019;BME280;10170;42.502;26.526;2022-12-18T09:59:23;100875.94;;;9.94;100.00
20019;BME280;10170;42.502;26.526;2022-12-18T10:01:51;100863.81;;;9.92;100.00
20019;BME280;10170;42.502;26.526;2022-12-18T10:04:18;100875.63;;;9.81;100.00
20019;BME280;10170;42.502;26.526;2022-12-18T10:07:12;100877.44;;;9.89;100.00
20019;BME280;10170;42.502;26.526;2022-12-18T10:09:47;100877.94;;;9.84;100.00
20019;BME280;10170;42.502;26.526;2022-12-18T10:12:22;100889.09;;;9.80;100.00
20019;BME280;10170;42.502;26.526;2022-12-18T10:15:30;100872.88;;;9.58;100.00
20019;BME280;10170;42.502;26.526;2022-12-18T10:18:02;100879.34;;;9.64;100.00
20019;BME280;10170;42.502;26.526;2022-12-18T10:20:39;100881.16;;;9.55;100.00
20019;BME280;10170;42.502;26.526;2022-12-18T10:26:03;100886.97;;;9.59;100.00
20019;BME280;10170;42.502;26.526;2022-12-18T10:28:33;100886.31;;;9.57;100.00
20019;BME280;10170;42.502;26.526;2022-12-18T10:31:01;100885.31;;;9.58;100.00
20019;BME280;10170;42.502;26.526;2022-12-18T10:33:30;100864.09;;;9.42;100.00
20019;BME280;10170;42.502;26.526;2022-12-18T10:35:58;100890.97;;;9.47;100.00
20019;BME280;10170;42.502;26.526;2022-12-18T10:38:31;100882.84;;;9.32;100.00
20019;BME280;10170;42.502;26.526;2022-12-18T10:41:04;100897.63;;;9.27;100.00
20019;BME280;10170;42.502;26.526;2022-12-18T10:43:41;100894.66;;;9.30;100.00
20019;BME280;10170;42.502;26.526;2022-12-18T10:51:35;100907.72;;;9.23;100.00
20019;BME280;10170;42.502;26.526;2022-12-18T10:54:06;100899.13;;;9.13;100.00
20019;BME280;10170;42.502;26.526;2022-12-18T10:56:35;100902.63;;;8.98;100.00
20019;BME280;10170;42.502;26.526;2022-12-18T10:59:14;100905.94;;;9.00;100.00
20019;BME280;10170;42.502;26.526;2022-12-18T11:04:21;100911.56;;;9.05;100.00
20019;BME280;10170;42.502;26.526;2022-12-18T11:07:08;100914.22;;;9.21;100.00
20019;BME280;10170;42.502;26.526;2022-12-18T11:09:36;100908.75;;;9.06;100.00
20019;BME280;10170;42.502;26.526;2022-12-18T11:12:14;100908.72;;;9.14;100.00
20019;BME280;10170;42.502;26.526;2022-12-18T11:14:50;100916.69;;;9.06;100.00
20019;BME280;10170;42.502;26.526;2022-12-18T11:17:33;100912.22;;;8.99;100.00
20019;BME280;10170;42.502;26.526;2022-12-18T11:20:07;100908.41;;;8.93;100.00
20019;BME280;10170;42.502;26.526;2022-12-18T11:22:55;100913.53;;;8.87;100.00
20019;BME280;10170;42.502;26.526;2022-12-18T11:25:23;100893.31;;;8.78;100.00
20019;BME280;10170;42.502;26.526;2022-12-18T11:28:01;100888.94;;;8.61;100.00
20019;BME280;10170;42.502;26.526;2022-12-18T11:30:33;100886.78;;;8.64;100.00
20019;BME280;10170;42.502;26.526;2022-12-18T11:33:09;100898.38;;;8.55;100.00
20019;BME280;10170;42.502;26.526;2022-12-18T11:35:50;100923.28;;;8.70;100.00
20019;BME280;10170;42.502;26.526;2022-12-18T11:38:28;100930.06;;;8.65;100.00
20019;BME280;10170;42.502;26.526;2022-12-18T11:44:23;100943.16;;;8.66;100.00
20019;BME280;10170;42.502;26.526;2022-12-18T11:46:47;100941.41;;;8.41;100.00
20019;BME280;10170;42.502;26.526;2022-12-18T11:49:30;100946.69;;;8.41;100.00
20019;BME280;10170;42.502;26.526;2022-12-18T11:52:08;100928.22;;;8.23;100.00
20019;BME280;10170;42.502;26.526;2022-12-18T11:54:36;100945.59;;;8.18;100.00
20019;BME280;10170;42.502;26.526;2022-12-18T11:57:18;100952.44;;;8.28;100.00
20019;BME280;10170;42.502;26.526;2022-12-18T12:00:20;100960.78;;;8.08;100.00
20019;BME280;10170;42.502;26.526;2022-12-18T12:03:14;100956.94;;;8.02;100.00
20019;BME280;10170;42.502;26.526;2022-12-18T12:05:50;100964.69;;;7.96;100.00
20019;BME280;10170;42.502;26.526;2022-12-18T12:16:34;100975.03;;;7.64;100.00
20019;BME280;10170;42.502;26.526;2022-12-18T12:22:17;100988.31;;;7.46;100.00
20019;BME280;10170;42.502;26.526;2022-12-18T12:24:55;100984.44;;;7.40;100.00
20019;BME280;10170;42.502;26.526;2022-12-18T12:27:28;100986.19;;;7.49;100.00
20019;BME280;10170;42.502;26.526;2022-12-18T12:30:14;100986.50;;;7.46;100.00
20019;BME280;10170;42.502;26.526;2022-12-18T12:35:44;100991.19;;;7.35;100.00
20019;BME280;10170;42.502;26.526;2022-12-18T12:38:18;100982.44;;;7.17;100.00
20019;BME280;10170;42.502;26.526;2022-12-18T12:40:51;100980.31;;;7.20;100.00
20019;BME280;10170;42.502;26.526;2022-12-18T12:43:43;100980.22;;;7.12;100.00
20019;BME280;10170;42.502;26.526;2022-12-18T12:46:33;100988.91;;;7.05;100.00
20019;BME280;10170;42.502;26.526;2022-12-18T12:49:03;100989.06;;;7.03;100.00
20019;BME280;10170;42.502;26.526;2022-12-18T12:51:35;100992.41;;;7.05;100.00
20019;BME280;10170;42.502;26.526;2022-12-18T12:54:05;101006.09;;;7.01;100.00
20019;BME280;10170;42.502;26.526;2022-12-18T12:56:42;100997.75;;;6.96;100.00
20019;BME280;10170;42.502;26.526;2022-12-18T12:59:30;100998.59;;;6.96;100.00
20019;BME280;10170;42.502;26.526;2022-12-18T13:02:20;101012.91;;;6.94;100.00
20019;BME280;10170;42.502;26.526;2022-12-18T13:07:54;101027.72;;;6.87;100.00
20019;BME280;10170;42.502;26.526;2022-12-18T13:10:30;101037.19;;;6.89;100.00
20019;BME280;10170;42.502;26.526;2022-12-18T13:13:15;101047.22;;;6.86;100.00
20019;BME280;10170;42.502;26.526;2022-12-18T13:16:04;101053.09;;;6.80;100.00
20019;BME280;10170;42.502;26.526;2022-12-18T13:18:32;101051.47;;;6.69;100.00
20019;BME280;10170;42.502;26.526;2022-12-18T13:23:32;101058.88;;;6.56;100.00
20019;BME280;10170;42.502;26.526;2022-12-18T13:36:57;101033.41;;;6.37;100.00
20019;BME280;10170;42.502;26.526;2022-12-18T13:39:43;101053.59;;;6.29;100.00
20019;BME280;10170;42.502;26.526;2022-12-18T13:44:57;101070.53;;;6.36;100.00
20019;BME280;10170;42.502;26.526;2022-12-18T13:47:35;101066.66;;;6.21;100.00
20019;BME280;10170;42.502;26.526;2022-12-18T13:50:24;101088.72;;;6.39;100.00
20019;BME280;10170;42.502;26.526;2022-12-18T13:52:57;101095.41;;;6.33;100.00
20019;BME280;10170;42.502;26.526;2022-12-18T13:55:24;101105.69;;;6.36;100.00
20019;BME280;10170;42.502;26.526;2022-12-18T13:58:03;101112.25;;;6.32;100.00
20019;BME280;10170;42.502;26.526;2022-12-18T14:00:31;101111.41;;;6.32;100.00
20019;BME280;10170;42.502;26.526;2022-12-18T14:02:58;101117.53;;;6.32;100.00
20019;BME280;10170;42.502;26.526;2022-12-18T14:05:31;101112.25;;;6.32;100.00
20019;BME280;10170;42.502;26.526;2022-12-18T14:08:05;101129.34;;;6.28;100.00
20019;BME280;10170;42.502;26.526;2022-12-18T14:10:35;101117.38;;;6.34;100.00
20019;BME280;10170;42.502;26.526;2022-12-18T14:13:23;101126.41;;;6.31;100.00
20019;BME280;10170;42.502;26.526;2022-12-18T14:15:51;101121.16;;;6.22;100.00
20019;BME280;10170;42.502;26.526;2022-12-18T14:18:25;101134.47;;;6.30;100.00
20019;BME280;10170;42.502;26.526;2022-12-18T14:20:57;101122.38;;;6.27;100.00
20019;BME280;10170;42.502;26.526;2022-12-18T14:23:34;101131.16;;;6.28;100.00